createdAt,value
2023-10-31T00:00:23.274Z,2.78
2023-10-31T00:02:50.679Z,2.30
2023-10-31T00:05:20.058Z,3.03
2023-10-31T00:07:49.272Z,2.60
2023-10-31T00:10:16.813Z,2.42
2023-10-31T00:12:44.161Z,2.65
2023-10-31T00:15:11.598Z,3.03
2023-10-31T00:17:39.477Z,2.50
2023-10-31T00:20:07.720Z,2.65
2023-10-31T00:22:35.200Z,2.80
2023-10-31T00:25:02.661Z,2.42
2023-10-31T00:27:30.077Z,3.33
2023-10-31T00:29:57.440Z,4.00
2023-10-31T00:32:26.868Z,4.78
2023-10-31T00:34:54.208Z,4.38
2023-10-31T00:37:21.637Z,5.15
2023-10-31T00:39:49.072Z,5.35
2023-10-31T00:42:16.447Z,6.55
2023-10-31T00:44:43.785Z,6.53
2023-10-31T00:47:11.255Z,7.13
2023-10-31T00:49:38.566Z,7.43
2023-10-31T00:52:06.586Z,8.48
2023-10-31T00:54:33.887Z,9.13
2023-10-31T00:57:01.185Z,9.55
2023-10-31T00:59:28.760Z,10.00
2023-10-31T01:01:56.205Z,10.13
2023-10-31T01:04:23.601Z,10.18
2023-10-31T01:06:50.881Z,11.00
2023-10-31T01:09:18.241Z,10.73
2023-10-31T01:11:45.555Z,11.48
2023-10-31T01:14:12.924Z,11.43
2023-10-31T01:16:41.792Z,11.15
2023-10-31T01:19:09.143Z,11.75
2023-10-31T01:21:36.452Z,11.15
2023-10-31T01:24:04.003Z,12.68
2023-10-31T01:26:31.410Z,13.00
2023-10-31T01:28:59.458Z,13.27
2023-10-31T01:31:26.836Z,13.80
2023-10-31T01:33:54.313Z,14.30
2023-10-31T01:36:28.646Z,14.15
2023-10-31T01:38:55.958Z,15.43
2023-10-31T01:41:23.249Z,17.40
2023-10-31T01:43:50.632Z,15.25
2023-10-31T01:46:17.983Z,14.70
2023-10-31T01:48:45.418Z,14.07
2023-10-31T01:51:12.997Z,14.00
2023-10-31T01:53:40.321Z,11.02
2023-10-31T01:56:08.705Z,9.65
2023-10-31T01:58:37.447Z,8.68
2023-10-31T02:01:06.870Z,7.40
2023-10-31T02:03:34.619Z,7.28
2023-10-31T02:06:02.330Z,6.22
2023-10-31T02:08:32.865Z,5.13
2023-10-31T02:11:00.233Z,3.63
2023-10-31T02:13:29.621Z,2.60
2023-10-31T02:15:56.981Z,1.70
2023-10-31T02:18:24.377Z,1.60
2023-10-31T02:20:51.673Z,1.23
2023-10-31T02:23:19.046Z,1.20
2023-10-31T02:25:46.353Z,1.40
2023-10-31T02:28:13.683Z,1.10
2023-10-31T02:30:41.688Z,1.35
2023-10-31T02:33:09.143Z,1.50
2023-10-31T02:35:39.748Z,1.08
2023-10-31T02:38:12.603Z,0.93
2023-10-31T02:43:07.433Z,1.15
2023-10-31T02:45:34.794Z,1.08
2023-10-31T02:48:02.227Z,1.02
2023-10-31T02:50:29.613Z,0.98
2023-10-31T02:52:57.070Z,1.02
2023-10-31T02:55:24.498Z,0.73
2023-10-31T02:57:51.779Z,0.88
2023-10-31T03:00:19.448Z,0.70
2023-10-31T03:02:46.947Z,1.42
2023-10-31T03:05:14.355Z,0.88
2023-10-31T03:07:41.794Z,1.20
2023-10-31T03:10:09.293Z,1.10
2023-10-31T03:12:36.665Z,0.90
2023-10-31T03:15:04.988Z,1.00
2023-10-31T03:17:32.414Z,1.08
2023-10-31T03:19:59.859Z,1.17
2023-10-31T03:22:27.244Z,0.90
2023-10-31T03:24:54.574Z,0.93
2023-10-31T03:27:22.129Z,2.05
2023-10-31T03:29:49.565Z,1.13
2023-10-31T03:32:17.005Z,0.90
2023-10-31T03:34:44.366Z,0.77
2023-10-31T03:37:11.724Z,1.00
2023-10-31T03:39:39.140Z,0.80
2023-10-31T03:42:06.973Z,0.65
2023-10-31T03:44:36.994Z,0.88
2023-10-31T03:47:04.480Z,1.00
2023-10-31T03:49:31.911Z,0.63
2023-10-31T03:51:59.356Z,0.80
2023-10-31T03:54:26.640Z,1.05
2023-10-31T03:56:53.974Z,1.40
2023-10-31T03:59:21.293Z,1.42
2023-10-31T04:01:48.631Z,1.30
2023-10-31T04:04:16.009Z,0.98
2023-10-31T04:06:44.718Z,1.20
2023-10-31T04:09:12.076Z,1.13
2023-10-31T04:11:40.638Z,0.95
2023-10-31T04:14:11.057Z,0.88
2023-10-31T04:16:46.718Z,0.70
2023-10-31T04:19:17.144Z,1.30
2023-10-31T04:21:44.419Z,1.35
2023-10-31T04:24:11.731Z,1.15
2023-10-31T04:26:40.017Z,1.00
2023-10-31T04:29:07.391Z,1.55
2023-10-31T04:31:41.681Z,1.25
2023-10-31T04:34:11.670Z,1.20
2023-10-31T04:36:39.017Z,1.45
2023-10-31T04:39:08.385Z,1.63
2023-10-31T04:41:35.731Z,2.22
2023-10-31T04:44:04.083Z,2.00
2023-10-31T04:46:31.494Z,1.90
2023-10-31T04:48:58.936Z,1.80
2023-10-31T04:51:26.346Z,1.50
2023-10-31T04:53:53.656Z,1.38
2023-10-31T04:56:21.445Z,1.40
2023-10-31T04:58:49.173Z,1.40
2023-10-31T05:01:18.225Z,1.60
2023-10-31T05:03:46.490Z,2.10
2023-10-31T05:06:14.710Z,1.70
2023-10-31T05:08:42.288Z,1.77
2023-10-31T05:11:09.937Z,1.20
2023-10-31T05:13:37.554Z,1.33
2023-10-31T05:16:05.414Z,1.17
2023-10-31T05:18:32.746Z,1.30
2023-10-31T05:21:00.126Z,1.20
2023-10-31T05:23:27.486Z,0.80
2023-10-31T05:25:54.844Z,1.52
2023-10-31T05:28:22.236Z,1.00
2023-10-31T05:30:49.700Z,1.42
2023-10-31T05:33:20.764Z,1.55
2023-10-31T05:35:48.187Z,1.80
2023-10-31T05:38:15.517Z,1.92
2023-10-31T05:40:42.873Z,1.98
2023-10-31T05:43:10.191Z,2.00
2023-10-31T05:45:40.742Z,1.98
2023-10-31T05:48:08.456Z,1.85
2023-10-31T05:50:35.738Z,1.35
2023-10-31T05:53:03.529Z,1.73
2023-10-31T05:55:30.870Z,1.50
2023-10-31T05:57:58.158Z,2.15
2023-10-31T06:00:25.489Z,1.63
2023-10-31T06:02:52.848Z,1.77
2023-10-31T06:05:20.433Z,1.60
2023-10-31T06:07:47.911Z,1.70
2023-10-31T06:10:15.409Z,2.13
2023-10-31T06:12:42.744Z,2.63
2023-10-31T06:15:10.391Z,3.03
2023-10-31T06:17:38.741Z,2.83
2023-10-31T06:20:10.714Z,2.78
2023-10-31T06:22:38.137Z,4.00
2023-10-31T06:25:06.103Z,5.28
2023-10-31T06:27:33.585Z,5.20
2023-10-31T06:30:11.967Z,5.57
2023-10-31T06:32:48.420Z,6.10
2023-10-31T06:35:15.848Z,6.80
2023-10-31T06:37:43.821Z,7.43
2023-10-31T06:40:11.658Z,8.00
2023-10-31T06:42:38.997Z,8.63
2023-10-31T06:45:06.778Z,9.20
2023-10-31T06:47:34.117Z,9.77
2023-10-31T06:50:01.684Z,10.25
2023-10-31T06:52:29.018Z,9.88
2023-10-31T06:54:56.333Z,10.48
2023-10-31T06:57:23.616Z,9.70
2023-10-31T06:59:50.939Z,9.20
2023-10-31T07:02:18.352Z,8.65
2023-10-31T07:04:45.764Z,8.40
2023-10-31T07:07:13.069Z,10.00
2023-10-31T07:09:42.834Z,9.20
2023-10-31T07:12:11.708Z,8.65
2023-10-31T07:14:39.106Z,8.75
2023-10-31T07:17:06.493Z,8.38
2023-10-31T07:19:33.807Z,9.98
2023-10-31T07:22:01.107Z,9.18
2023-10-31T07:24:29.684Z,9.82
2023-10-31T07:26:58.191Z,10.45
2023-10-31T07:29:25.560Z,12.18
2023-10-31T07:31:52.992Z,13.57
2023-10-31T07:34:20.717Z,14.93
2023-10-31T07:36:48.056Z,15.02
2023-10-31T07:39:15.731Z,15.82
2023-10-31T07:41:43.200Z,18.33
2023-10-31T07:44:10.507Z,18.15
2023-10-31T07:46:37.946Z,18.80
2023-10-31T07:49:06.890Z,19.05
2023-10-31T07:51:34.914Z,20.95
2023-10-31T07:54:03.123Z,21.20
2023-10-31T07:56:30.801Z,21.42
2023-10-31T07:58:58.740Z,21.10
2023-10-31T08:01:26.505Z,21.92
2023-10-31T08:03:54.056Z,23.15
2023-10-31T08:06:21.639Z,22.50
2023-10-31T08:08:49.571Z,21.25
2023-10-31T08:11:16.936Z,20.83
2023-10-31T08:13:45.950Z,21.35
2023-10-31T08:16:22.603Z,21.95
2023-10-31T08:18:50.564Z,19.17
2023-10-31T08:21:17.994Z,16.35
2023-10-31T08:23:47.391Z,14.38
2023-10-31T08:26:15.001Z,15.07
2023-10-31T08:28:42.411Z,13.68
2023-10-31T08:31:09.847Z,13.63
2023-10-31T08:33:37.233Z,12.38
2023-10-31T08:36:05.959Z,11.05
2023-10-31T08:38:33.318Z,11.45
2023-10-31T08:41:00.939Z,11.02
2023-10-31T08:43:28.624Z,11.65
2023-10-31T08:45:55.964Z,12.35
2023-10-31T08:48:23.378Z,11.93
2023-10-31T08:50:52.473Z,12.65
2023-10-31T08:53:23.744Z,10.50
2023-10-31T08:55:51.241Z,11.10
2023-10-31T08:58:19.530Z,10.07
2023-10-31T09:00:46.866Z,9.27
2023-10-31T09:03:14.386Z,7.82
2023-10-31T09:05:42.016Z,8.73
2023-10-31T09:08:11.602Z,7.22
2023-10-31T09:10:39.700Z,6.80
2023-10-31T09:13:07.306Z,6.90
2023-10-31T09:15:34.624Z,6.53
2023-10-31T09:18:02.181Z,6.65
2023-10-31T09:20:31.048Z,7.25
2023-10-31T09:22:58.543Z,7.18
2023-10-31T09:25:25.910Z,6.72
2023-10-31T09:28:00.052Z,7.15
2023-10-31T09:30:27.781Z,7.72
2023-10-31T09:32:55.266Z,7.20
2023-10-31T09:35:22.836Z,8.35
2023-10-31T09:37:50.426Z,8.75
2023-10-31T09:40:17.953Z,11.07
2023-10-31T09:42:48.691Z,12.30
2023-10-31T09:45:16.223Z,13.13
2023-10-31T09:47:44.217Z,14.30
2023-10-31T09:50:12.354Z,14.07
2023-10-31T09:52:40.193Z,15.05
2023-10-31T09:55:08.526Z,14.40
2023-10-31T09:57:36.094Z,13.95
2023-10-31T10:00:03.537Z,14.25
2023-10-31T10:02:30.945Z,16.20
2023-10-31T10:04:58.635Z,16.38
2023-10-31T10:07:26.013Z,17.23
2023-10-31T10:09:53.353Z,20.63
2023-10-31T10:12:21.182Z,20.05
2023-10-31T10:14:48.622Z,21.13
2023-10-31T10:17:22.094Z,21.63
2023-10-31T10:19:54.462Z,23.83
2023-10-31T10:22:22.063Z,24.10
2023-10-31T10:24:49.395Z,24.13
2023-10-31T10:27:16.995Z,25.40
2023-10-31T10:29:45.861Z,25.88
2023-10-31T10:32:13.881Z,26.58
2023-10-31T10:34:43.970Z,23.92
2023-10-31T10:37:11.503Z,23.92
2023-10-31T10:39:39.360Z,26.08
2023-10-31T10:42:11.063Z,26.27
2023-10-31T10:44:39.794Z,26.33
2023-10-31T10:47:08.369Z,26.05
2023-10-31T10:49:38.654Z,26.20
2023-10-31T10:52:22.373Z,27.33
2023-10-31T10:55:14.640Z,27.73
2023-10-31T10:57:58.052Z,27.23
2023-10-31T11:00:26.263Z,26.63
2023-10-31T11:02:55.417Z,28.42
2023-10-31T11:05:24.131Z,28.02
2023-10-31T11:07:52.948Z,26.60
2023-10-31T11:10:20.552Z,28.63
2023-10-31T11:12:48.004Z,25.70
2023-10-31T11:15:17.689Z,26.40
2023-10-31T11:17:46.853Z,24.13
2023-10-31T11:20:16.895Z,23.80
2023-10-31T11:22:46.332Z,25.13
2023-10-31T11:25:31.594Z,25.13
2023-10-31T11:28:16.672Z,21.95
2023-10-31T11:30:44.847Z,20.88
2023-10-31T11:33:16.917Z,19.63
2023-10-31T11:35:47.134Z,22.23
2023-10-31T11:38:14.670Z,23.30
2023-10-31T11:40:51.375Z,22.73
2023-10-31T11:43:18.695Z,23.95
2023-10-31T11:45:49.930Z,24.90
2023-10-31T11:48:17.528Z,23.20
2023-10-31T11:50:45.087Z,25.08
2023-10-31T11:53:18.146Z,25.88
2023-10-31T11:55:49.103Z,25.88
2023-10-31T11:58:20.983Z,25.98
2023-10-31T12:00:50.293Z,26.20
2023-10-31T12:03:19.396Z,29.42
2023-10-31T12:05:57.577Z,33.08
2023-10-31T12:08:44.647Z,34.25
2023-10-31T12:11:21.621Z,31.85
2023-10-31T12:13:59.542Z,33.85
2023-10-31T12:16:28.893Z,34.58
2023-10-31T12:19:01.129Z,38.45
2023-10-31T12:21:46.087Z,38.30
2023-10-31T12:24:15.036Z,36.28
2023-10-31T12:26:43.213Z,34.75
2023-10-31T12:29:21.364Z,35.00
2023-10-31T12:31:56.210Z,32.28
2023-10-31T12:34:25.339Z,30.40
2023-10-31T12:36:54.592Z,29.17
2023-10-31T12:39:29.987Z,28.10
2023-10-31T12:41:59.472Z,26.00
2023-10-31T12:44:29.009Z,26.83
2023-10-31T12:46:57.423Z,27.63
2023-10-31T12:49:25.531Z,27.48
2023-10-31T12:52:04.764Z,25.83
2023-10-31T12:54:36.927Z,25.30
2023-10-31T12:57:06.435Z,23.23
2023-10-31T12:59:39.195Z,20.73
2023-10-31T13:02:08.187Z,19.17
2023-10-31T13:04:36.045Z,19.65
2023-10-31T13:07:05.484Z,19.00
2023-10-31T13:09:36.967Z,18.98
2023-10-31T13:12:06.961Z,19.08
2023-10-31T13:14:35.022Z,21.40
2023-10-31T13:17:06.933Z,21.70
2023-10-31T13:19:34.417Z,22.83
2023-10-31T13:22:01.806Z,23.75
2023-10-31T13:24:29.175Z,24.85
2023-10-31T13:26:56.753Z,22.85
2023-10-31T13:29:26.993Z,24.35
2023-10-31T13:31:54.667Z,24.60
2023-10-31T13:34:22.144Z,27.40
2023-10-31T13:36:53.051Z,24.88
2023-10-31T13:39:22.538Z,24.90
2023-10-31T13:41:50.114Z,26.35
2023-10-31T13:44:17.486Z,23.95
2023-10-31T13:46:44.813Z,26.02
2023-10-31T13:49:13.581Z,26.33
2023-10-31T13:51:40.914Z,26.00
2023-10-31T13:54:08.271Z,26.85
2023-10-31T13:56:36.363Z,22.55
2023-10-31T13:59:03.953Z,20.88
2023-10-31T14:01:31.464Z,20.55
2023-10-31T14:03:58.990Z,21.13
2023-10-31T14:06:31.217Z,21.65
2023-10-31T14:09:00.132Z,19.40
2023-10-31T14:11:28.055Z,19.23
2023-10-31T14:13:55.636Z,19.38
2023-10-31T14:16:23.138Z,21.98
2023-10-31T14:18:50.682Z,19.95
2023-10-31T14:21:18.078Z,20.63
2023-10-31T14:23:55.874Z,17.85
2023-10-31T14:26:25.765Z,19.20
2023-10-31T14:28:53.261Z,20.17
2023-10-31T14:31:23.819Z,19.75
2023-10-31T14:33:51.705Z,17.02
2023-10-31T14:36:19.087Z,18.40
2023-10-31T14:38:46.425Z,17.48
2023-10-31T14:41:15.588Z,16.73
2023-10-31T14:43:43.086Z,16.35
2023-10-31T14:46:10.703Z,16.45
2023-10-31T14:48:38.147Z,17.33
2023-10-31T14:51:06.005Z,18.30
2023-10-31T14:53:33.384Z,18.15
2023-10-31T14:56:00.783Z,17.85
2023-10-31T14:58:28.299Z,18.35
2023-10-31T15:00:56.405Z,17.70
2023-10-31T15:03:23.870Z,17.00
2023-10-31T15:05:51.646Z,17.27
2023-10-31T15:08:19.025Z,16.63
2023-10-31T15:10:46.984Z,16.92
2023-10-31T15:13:14.283Z,17.05
2023-10-31T15:15:41.703Z,15.25
2023-10-31T15:18:09.223Z,15.48
2023-10-31T15:20:36.626Z,15.30
2023-10-31T15:23:04.660Z,14.65
2023-10-31T15:25:32.036Z,15.35
2023-10-31T15:27:59.423Z,15.05
2023-10-31T15:30:26.766Z,15.05
2023-10-31T15:32:54.169Z,15.05
2023-10-31T15:35:21.717Z,15.35
2023-10-31T15:37:49.993Z,15.73
2023-10-31T15:40:17.323Z,17.23
2023-10-31T15:42:44.621Z,16.15
2023-10-31T15:45:11.977Z,16.85
2023-10-31T15:47:39.440Z,18.17
2023-10-31T15:50:07.601Z,18.48
2023-10-31T15:52:34.906Z,17.55
2023-10-31T15:55:02.844Z,18.23
2023-10-31T15:57:30.660Z,18.58
2023-10-31T15:59:58.775Z,17.55
2023-10-31T16:02:27.134Z,19.35
2023-10-31T16:04:54.637Z,17.75
2023-10-31T16:07:22.228Z,17.58
2023-10-31T16:09:49.893Z,17.40
2023-10-31T16:12:17.247Z,18.10
2023-10-31T16:14:44.665Z,15.52
2023-10-31T16:17:12.391Z,16.10
2023-10-31T16:19:39.993Z,16.02
2023-10-31T16:22:07.912Z,16.52
2023-10-31T16:24:35.698Z,17.58
2023-10-31T16:27:02.997Z,15.77
2023-10-31T16:29:30.380Z,16.40
2023-10-31T16:31:57.787Z,16.00
2023-10-31T16:34:25.176Z,16.85
2023-10-31T16:36:52.515Z,15.93
2023-10-31T16:39:19.924Z,16.48
2023-10-31T16:41:47.540Z,16.17
2023-10-31T16:44:14.946Z,16.05
2023-10-31T16:46:49.385Z,17.40
2023-10-31T16:49:18.511Z,18.73
2023-10-31T16:51:45.907Z,19.25
2023-10-31T16:54:14.638Z,21.20
2023-10-31T16:56:41.955Z,20.63
2023-10-31T16:59:09.335Z,20.85
2023-10-31T17:01:37.820Z,21.27
2023-10-31T17:04:05.620Z,20.10
2023-10-31T17:06:33.294Z,20.13
2023-10-31T17:09:00.715Z,20.95
2023-10-31T17:11:28.116Z,19.67
2023-10-31T17:13:55.522Z,18.85
2023-10-31T17:16:22.998Z,19.25
2023-10-31T17:18:50.760Z,18.05
2023-10-31T17:21:18.221Z,19.48
2023-10-31T17:23:46.460Z,17.10
2023-10-31T17:26:14.087Z,16.73
2023-10-31T17:28:41.435Z,17.75
2023-10-31T17:31:09.286Z,17.65
2023-10-31T17:33:36.982Z,19.02
2023-10-31T17:36:04.797Z,19.00
2023-10-31T17:38:32.141Z,20.38
2023-10-31T17:40:59.515Z,19.40
2023-10-31T17:43:27.693Z,20.52
2023-10-31T17:45:55.016Z,20.60
2023-10-31T17:48:22.392Z,20.25
2023-10-31T17:50:49.871Z,20.45
2023-10-31T17:53:17.455Z,21.13
2023-10-31T17:55:47.018Z,20.27
2023-10-31T17:58:14.429Z,20.35
2023-10-31T18:00:41.793Z,21.13
2023-10-31T18:03:09.365Z,20.40
2023-10-31T18:05:36.802Z,21.00
2023-10-31T18:08:04.304Z,20.83
2023-10-31T18:10:31.691Z,19.75
2023-10-31T18:13:01.782Z,19.50
2023-10-31T18:15:30.446Z,19.70
2023-10-31T18:17:57.925Z,18.80
2023-10-31T18:20:25.346Z,18.65
2023-10-31T18:22:52.747Z,17.98
2023-10-31T18:25:21.064Z,18.08
2023-10-31T18:27:48.611Z,18.77
2023-10-31T18:30:16.169Z,19.55
2023-10-31T18:32:43.668Z,19.58
2023-10-31T18:35:11.212Z,18.95
2023-10-31T18:37:38.621Z,19.92
2023-10-31T18:40:06.668Z,21.02
2023-10-31T18:42:36.038Z,21.20
2023-10-31T18:45:03.845Z,22.15
2023-10-31T18:47:31.356Z,20.63
2023-10-31T18:49:58.777Z,20.35
2023-10-31T18:52:26.114Z,20.02
2023-10-31T18:54:54.735Z,19.55
2023-10-31T18:57:23.202Z,20.08
2023-10-31T18:59:53.907Z,19.95
2023-10-31T19:02:21.602Z,19.83
2023-10-31T19:04:48.998Z,20.05
2023-10-31T19:07:16.466Z,19.75
2023-10-31T19:09:43.866Z,19.35
2023-10-31T19:12:11.273Z,19.15
2023-10-31T19:14:38.771Z,19.30
2023-10-31T19:17:08.031Z,19.67
2023-10-31T19:19:35.765Z,19.60
2023-10-31T19:22:03.222Z,20.40
2023-10-31T19:24:30.677Z,20.30
2023-10-31T19:26:58.470Z,20.55
2023-10-31T19:29:26.042Z,20.48
2023-10-31T19:31:53.900Z,21.23
2023-10-31T19:34:21.241Z,20.25
2023-10-31T19:36:48.670Z,21.33
2023-10-31T19:39:16.111Z,21.48
2023-10-31T19:41:43.559Z,19.65
2023-10-31T19:44:10.941Z,20.10
2023-10-31T19:46:39.613Z,20.08
2023-10-31T19:49:07.001Z,20.25
2023-10-31T19:51:34.437Z,19.67
2023-10-31T19:54:01.934Z,18.60
2023-10-31T19:56:29.603Z,17.30
2023-10-31T19:58:58.627Z,16.63
2023-10-31T20:01:26.997Z,15.60
2023-10-31T20:03:54.982Z,13.00
2023-10-31T20:06:22.489Z,12.85
2023-10-31T20:08:57.815Z,12.25
2023-10-31T20:11:27.868Z,11.32
2023-10-31T20:13:55.588Z,9.63
2023-10-31T20:16:23.012Z,9.40
2023-10-31T20:18:50.370Z,10.25
2023-10-31T20:21:18.267Z,9.40
2023-10-31T20:23:45.911Z,9.80
2023-10-31T20:26:17.182Z,8.30
2023-10-31T20:28:44.751Z,8.00
2023-10-31T20:31:12.109Z,7.32
2023-10-31T20:33:41.328Z,7.28
2023-10-31T20:36:08.969Z,7.20
2023-10-31T20:38:36.434Z,6.47
2023-10-31T20:41:03.979Z,6.93
2023-10-31T20:43:31.664Z,6.32
2023-10-31T20:45:59.162Z,6.50
2023-10-31T20:48:26.734Z,6.30
2023-10-31T20:50:54.216Z,5.70
2023-10-31T20:53:21.906Z,6.60
2023-10-31T20:55:49.238Z,5.70
2023-10-31T20:58:16.681Z,5.68
2023-10-31T21:00:44.242Z,5.90
2023-10-31T21:03:13.250Z,5.70
2023-10-31T21:05:40.811Z,5.90
2023-10-31T21:08:08.233Z,5.63
2023-10-31T21:10:35.729Z,5.90
2023-10-31T21:13:03.643Z,5.60
2023-10-31T21:15:31.684Z,5.40
2023-10-31T21:17:59.218Z,5.38
2023-10-31T21:20:26.690Z,5.35
2023-10-31T21:22:54.185Z,5.13
2023-10-31T21:25:21.660Z,6.00
2023-10-31T21:27:50.187Z,5.28
2023-10-31T21:30:17.873Z,4.88
2023-10-31T21:32:45.375Z,5.68
2023-10-31T21:35:14.803Z,5.82
2023-10-31T21:37:42.379Z,5.70
2023-10-31T21:40:10.416Z,5.40
2023-10-31T21:42:39.976Z,5.82
2023-10-31T21:45:08.306Z,5.45
2023-10-31T21:47:35.849Z,5.65
2023-10-31T21:50:03.796Z,5.63
2023-10-31T21:52:31.224Z,5.38
2023-10-31T21:54:58.532Z,5.50
2023-10-31T21:57:26.128Z,5.28
2023-10-31T21:59:53.642Z,5.60
2023-10-31T22:02:21.138Z,6.13
2023-10-31T22:04:48.498Z,5.88
2023-10-31T22:07:15.873Z,5.65
2023-10-31T22:09:43.245Z,6.53
2023-10-31T22:12:11.186Z,5.28
2023-10-31T22:14:38.591Z,5.85
2023-10-31T22:17:06.449Z,5.18
2023-10-31T22:19:33.972Z,5.82
2023-10-31T22:22:01.301Z,5.35
2023-10-31T22:24:28.612Z,6.30
2023-10-31T22:26:55.976Z,5.35
2023-10-31T22:29:23.356Z,5.97
2023-10-31T22:31:50.820Z,4.95
2023-10-31T22:34:19.072Z,6.15
2023-10-31T22:36:46.439Z,5.53
2023-10-31T22:39:13.726Z,5.13
2023-10-31T22:41:42.001Z,5.32
2023-10-31T22:44:10.024Z,4.82
2023-10-31T22:46:37.523Z,4.70
2023-10-31T22:49:05.334Z,4.50
2023-10-31T22:51:32.754Z,4.55
2023-10-31T22:54:00.087Z,4.90
2023-10-31T22:56:27.513Z,3.95
2023-10-31T22:58:54.857Z,4.15
2023-10-31T23:01:22.315Z,4.10
2023-10-31T23:03:50.682Z,3.90
2023-10-31T23:06:18.205Z,3.90
2023-10-31T23:08:46.345Z,4.03
2023-10-31T23:11:16.625Z,3.90
2023-10-31T23:13:43.978Z,3.38
2023-10-31T23:16:11.351Z,3.55
2023-10-31T23:18:40.400Z,3.65
2023-10-31T23:21:07.786Z,3.33
2023-10-31T23:23:35.252Z,3.58
2023-10-31T23:26:02.680Z,4.10
2023-10-31T23:28:30.029Z,4.40
2023-10-31T23:30:58.833Z,4.75
2023-10-31T23:33:28.403Z,4.78
2023-10-31T23:35:56.585Z,4.38
2023-10-31T23:38:24.159Z,4.00
2023-10-31T23:40:51.477Z,4.57
2023-10-31T23:43:18.913Z,4.60
2023-10-31T23:45:46.353Z,4.45
2023-10-31T23:48:13.700Z,5.40
2023-10-31T23:50:41.517Z,5.70
2023-10-31T23:53:08.985Z,5.97
2023-10-31T23:55:36.425Z,6.25
2023-10-31T23:58:04.090Z,6.47
